createdAt,value
2022-07-29T00:01:46.174Z,16.65
2022-07-29T00:04:15.389Z,16.62
2022-07-29T00:06:44.172Z,15.93
2022-07-29T00:09:12.742Z,16.61
2022-07-29T00:11:41.561Z,16.59
2022-07-29T00:14:10.118Z,16.59
2022-07-29T00:16:40.605Z,16.60
2022-07-29T00:19:09.269Z,16.62
2022-07-29T00:21:39.870Z,16.60
2022-07-29T00:24:09.000Z,16.59
2022-07-29T00:26:38.263Z,16.57
2022-07-29T00:29:33.007Z,16.55
2022-07-29T00:31:57.192Z,16.19
2022-07-29T00:34:43.429Z,16.48
2022-07-29T00:37:11.839Z,16.37
2022-07-29T00:39:40.422Z,16.44
2022-07-29T00:42:09.729Z,16.43
2022-07-29T00:44:41.746Z,16.41
2022-07-29T00:47:14.097Z,16.41
2022-07-29T00:49:43.285Z,16.42
2022-07-29T00:52:13.719Z,16.42
2022-07-29T00:54:45.751Z,16.41
2022-07-29T00:57:15.006Z,16.33
2022-07-29T00:59:43.504Z,16.27
2022-07-29T01:02:14.134Z,16.24
2022-07-29T01:04:43.585Z,16.21
2022-07-29T01:07:12.669Z,16.20
2022-07-29T01:09:45.315Z,16.21
2022-07-29T01:12:17.701Z,16.17
2022-07-29T01:14:47.621Z,16.16
2022-07-29T01:17:23.412Z,16.00
2022-07-29T01:20:00.597Z,16.16
2022-07-29T01:22:39.788Z,16.15
2022-07-29T01:25:29.217Z,15.97
2022-07-29T01:28:19.970Z,16.05
2022-07-29T01:30:56.368Z,16.01
2022-07-29T01:33:45.179Z,15.97
2022-07-29T01:36:17.152Z,15.93
2022-07-29T01:38:51.485Z,15.91
2022-07-29T01:41:23.798Z,15.88
2022-07-29T01:43:57.136Z,15.87
2022-07-29T01:46:33.745Z,15.85
2022-07-29T01:49:11.384Z,15.86
2022-07-29T01:51:48.726Z,15.85
2022-07-29T01:54:22.758Z,15.35
2022-07-29T01:56:55.842Z,15.85
2022-07-29T01:59:26.141Z,15.82
2022-07-29T02:02:00.324Z,15.80
2022-07-29T02:04:31.602Z,15.70
2022-07-29T02:07:04.102Z,15.77
2022-07-29T02:09:34.343Z,15.63
2022-07-29T02:12:04.466Z,15.75
2022-07-29T02:14:36.944Z,15.73
2022-07-29T02:17:07.309Z,15.76
2022-07-29T02:19:36.728Z,15.72
2022-07-29T02:22:07.601Z,15.64
2022-07-29T02:24:38.208Z,15.64
2022-07-29T02:27:07.304Z,15.51
2022-07-29T02:29:37.230Z,15.73
2022-07-29T02:32:10.834Z,15.73
2022-07-29T02:34:42.409Z,15.72
2022-07-29T02:37:12.494Z,15.68
2022-07-29T02:39:43.657Z,15.70
2022-07-29T02:42:16.072Z,15.70
2022-07-29T02:44:45.300Z,15.69
2022-07-29T02:47:21.510Z,15.68
2022-07-29T02:49:57.699Z,15.71
2022-07-29T02:52:32.901Z,15.70
2022-07-29T02:55:09.902Z,15.69
2022-07-29T02:57:54.119Z,15.69
2022-07-29T03:00:25.990Z,15.67
2022-07-29T03:02:59.732Z,15.69
2022-07-29T03:05:29.110Z,15.54
2022-07-29T03:08:01.190Z,15.70
2022-07-29T03:10:30.856Z,15.70
2022-07-29T03:13:00.169Z,15.68
2022-07-29T03:15:29.873Z,15.44
2022-07-29T03:18:01.202Z,15.55
2022-07-29T03:20:29.777Z,15.69
2022-07-29T03:22:58.338Z,15.69
2022-07-29T03:25:28.248Z,15.56
2022-07-29T03:27:57.948Z,15.69
2022-07-29T03:30:26.520Z,15.69
2022-07-29T03:32:58.114Z,15.68
2022-07-29T03:35:28.953Z,15.67
2022-07-29T03:37:57.386Z,15.67
2022-07-29T03:40:30.150Z,15.67
2022-07-29T03:43:00.512Z,15.42
2022-07-29T03:45:31.616Z,15.66
2022-07-29T03:48:04.271Z,15.56
2022-07-29T03:50:36.518Z,15.61
2022-07-29T03:53:05.688Z,15.64
2022-07-29T03:55:43.637Z,15.36
2022-07-29T03:58:14.942Z,15.60
2022-07-29T04:00:45.169Z,15.58
2022-07-29T04:03:15.906Z,15.23
2022-07-29T04:05:46.055Z,15.42
2022-07-29T04:08:14.572Z,15.54
2022-07-29T04:10:43.093Z,15.54
2022-07-29T04:13:11.669Z,15.55
2022-07-29T04:15:40.219Z,15.55
2022-07-29T04:18:09.025Z,15.53
2022-07-29T04:20:37.493Z,15.52
2022-07-29T04:23:07.370Z,15.49
2022-07-29T04:25:36.286Z,15.48
2022-07-29T04:28:05.070Z,15.46
2022-07-29T04:30:35.032Z,15.46
2022-07-29T04:33:04.768Z,15.45
2022-07-29T04:35:38.124Z,15.46
2022-07-29T04:38:15.604Z,15.40
2022-07-29T04:40:45.720Z,15.46
2022-07-29T04:43:16.117Z,15.52
2022-07-29T04:45:45.036Z,15.55
2022-07-29T04:48:13.529Z,15.57
2022-07-29T04:50:43.272Z,15.57
2022-07-29T04:53:13.397Z,15.55
2022-07-29T04:55:41.795Z,15.53
2022-07-29T04:58:10.542Z,15.52
2022-07-29T05:00:39.131Z,15.50
2022-07-29T05:03:08.082Z,15.47
2022-07-29T05:05:37.222Z,15.29
2022-07-29T05:08:06.133Z,15.46
2022-07-29T05:10:39.489Z,15.40
2022-07-29T05:13:08.762Z,15.33
2022-07-29T05:15:37.846Z,15.31
2022-07-29T05:18:07.043Z,15.29
2022-07-29T05:20:36.090Z,15.30
2022-07-29T05:23:04.864Z,15.31
2022-07-29T05:25:42.931Z,15.30
2022-07-29T05:28:14.812Z,15.33
2022-07-29T05:30:43.727Z,15.41
2022-07-29T05:33:34.663Z,15.41
2022-07-29T05:36:01.272Z,15.44
2022-07-29T05:38:30.379Z,15.48
2022-07-29T05:41:00.381Z,15.52
2022-07-29T05:43:30.704Z,15.55
2022-07-29T05:45:59.481Z,15.61
2022-07-29T05:48:28.255Z,15.66
2022-07-29T05:50:57.703Z,15.69
2022-07-29T05:53:26.497Z,15.51
2022-07-29T05:55:55.216Z,15.79
2022-07-29T05:58:23.792Z,15.83
2022-07-29T06:00:53.966Z,15.90
2022-07-29T06:03:22.769Z,15.97
2022-07-29T06:05:51.238Z,16.02
2022-07-29T06:08:19.997Z,16.08
2022-07-29T06:10:48.513Z,16.10
2022-07-29T06:13:17.533Z,16.18
2022-07-29T06:15:46.525Z,16.20
2022-07-29T06:18:16.625Z,16.11
2022-07-29T06:20:45.136Z,16.28
2022-07-29T06:23:13.720Z,16.34
2022-07-29T06:25:43.104Z,16.32
2022-07-29T06:28:12.176Z,16.47
2022-07-29T06:30:40.762Z,16.56
2022-07-29T06:33:09.495Z,16.40
2022-07-29T06:35:42.305Z,16.56
2022-07-29T06:38:29.898Z,16.40
2022-07-29T06:41:06.409Z,16.35
2022-07-29T06:43:50.349Z,16.88
2022-07-29T06:46:22.351Z,16.99
2022-07-29T06:48:51.600Z,17.33
2022-07-29T06:51:23.886Z,17.48
2022-07-29T06:54:00.141Z,17.51
2022-07-29T06:56:39.572Z,17.28
2022-07-29T06:59:09.863Z,17.64
2022-07-29T07:01:39.379Z,17.71
2022-07-29T07:04:10.058Z,17.79
2022-07-29T07:06:40.419Z,17.71
2022-07-29T07:09:09.618Z,17.99
2022-07-29T07:11:38.118Z,18.06
2022-07-29T07:14:06.589Z,18.11
2022-07-29T07:16:35.568Z,18.22
2022-07-29T07:19:04.123Z,18.29
2022-07-29T07:21:32.629Z,18.41
2022-07-29T07:24:03.193Z,18.56
2022-07-29T07:26:31.935Z,18.66
2022-07-29T07:29:01.535Z,18.71
2022-07-29T07:31:30.503Z,18.79
2022-07-29T07:34:00.186Z,18.52
2022-07-29T07:36:28.649Z,18.96
2022-07-29T07:38:57.510Z,18.98
2022-07-29T07:41:27.886Z,19.04
2022-07-29T07:44:01.370Z,19.06
2022-07-29T07:46:29.933Z,18.88
2022-07-29T07:48:58.466Z,19.07
2022-07-29T07:51:27.261Z,18.94
2022-07-29T07:53:55.668Z,18.85
2022-07-29T07:56:31.919Z,19.06
2022-07-29T07:59:03.340Z,19.08
2022-07-29T08:01:47.898Z,19.10
2022-07-29T08:04:26.588Z,19.12
2022-07-29T08:06:56.461Z,19.17
2022-07-29T08:09:30.358Z,19.22
2022-07-29T08:12:03.454Z,19.13
2022-07-29T08:14:33.101Z,19.32
2022-07-29T08:17:02.778Z,19.39
2022-07-29T08:19:31.261Z,19.48
2022-07-29T08:21:59.710Z,19.56
2022-07-29T08:24:53.406Z,19.63
2022-07-29T08:27:42.845Z,19.63
2022-07-29T08:30:13.318Z,19.58
2022-07-29T08:32:53.597Z,19.62
2022-07-29T08:35:22.692Z,19.64
2022-07-29T08:37:51.715Z,19.72
2022-07-29T08:40:20.372Z,19.76
2022-07-29T08:43:06.462Z,19.58
2022-07-29T08:45:48.130Z,19.92
2022-07-29T08:48:18.168Z,19.93
2022-07-29T08:50:48.932Z,20.04
2022-07-29T08:53:19.573Z,20.12
2022-07-29T08:55:50.662Z,20.20
2022-07-29T08:58:23.225Z,20.28
2022-07-29T09:00:56.682Z,20.33
2022-07-29T09:03:28.218Z,20.49
2022-07-29T09:05:56.981Z,20.51
2022-07-29T09:08:26.220Z,20.58
2022-07-29T09:10:57.189Z,20.64
2022-07-29T09:13:27.393Z,20.76
2022-07-29T09:15:55.967Z,20.84
2022-07-29T09:18:46.169Z,20.92
2022-07-29T09:21:33.233Z,21.04
2022-07-29T09:24:08.212Z,21.07
2022-07-29T09:26:38.837Z,21.18
2022-07-29T09:29:13.686Z,21.28
2022-07-29T09:31:45.209Z,21.31
2022-07-29T09:34:15.746Z,21.37
2022-07-29T09:36:45.932Z,21.45
2022-07-29T09:39:15.638Z,21.53
2022-07-29T09:41:51.484Z,21.60
2022-07-29T09:44:21.991Z,21.63
2022-07-29T09:46:59.243Z,21.69
2022-07-29T09:49:28.362Z,21.76
2022-07-29T09:52:08.909Z,21.89
2022-07-29T09:54:41.587Z,21.69
2022-07-29T09:57:13.781Z,22.12
2022-07-29T09:59:59.163Z,22.29
2022-07-29T10:02:32.942Z,22.41
2022-07-29T10:05:02.256Z,22.41
2022-07-29T10:07:50.581Z,22.66
2022-07-29T10:10:24.367Z,22.78
2022-07-29T10:12:55.173Z,22.87
2022-07-29T10:15:27.218Z,22.95
2022-07-29T10:17:57.631Z,23.00
2022-07-29T10:20:27.457Z,22.93
2022-07-29T10:22:57.002Z,22.95
2022-07-29T10:25:26.980Z,22.87
2022-07-29T10:27:56.734Z,22.89
2022-07-29T10:30:28.899Z,22.89
2022-07-29T10:33:18.147Z,22.94
2022-07-29T10:35:57.056Z,22.80
2022-07-29T10:38:48.226Z,22.93
2022-07-29T10:41:44.198Z,22.99
2022-07-29T10:44:19.168Z,22.94
2022-07-29T10:46:49.848Z,22.87
2022-07-29T10:49:19.607Z,22.68
2022-07-29T10:52:01.253Z,22.71
2022-07-29T10:54:48.684Z,22.76
2022-07-29T10:57:26.006Z,22.72
2022-07-29T11:00:30.583Z,22.60
2022-07-29T11:03:01.430Z,22.62
2022-07-29T11:05:59.757Z,22.66
2022-07-29T11:08:28.941Z,22.51
2022-07-29T11:11:44.010Z,22.31
2022-07-29T11:14:26.622Z,22.02
2022-07-29T11:17:07.586Z,21.89
2022-07-29T11:19:45.698Z,21.77
2022-07-29T11:22:36.247Z,21.68
2022-07-29T11:25:50.444Z,21.66
2022-07-29T11:28:22.707Z,21.68
2022-07-29T11:30:56.224Z,21.77
2022-07-29T11:33:54.526Z,21.84
2022-07-29T11:36:27.793Z,21.91
2022-07-29T11:39:36.662Z,21.95
2022-07-29T11:42:47.789Z,21.90
2022-07-29T11:45:42.563Z,21.92
2022-07-29T11:48:29.222Z,21.99
2022-07-29T11:51:00.927Z,22.02
2022-07-29T11:53:32.611Z,21.81
2022-07-29T11:56:03.708Z,22.03
2022-07-29T11:58:33.036Z,22.02
2022-07-29T12:01:05.065Z,22.00
2022-07-29T12:03:36.979Z,21.69
2022-07-29T12:09:14.579Z,22.03
2022-07-29T12:11:44.964Z,22.14
2022-07-29T12:14:28.798Z,22.32
2022-07-29T12:16:57.507Z,22.43
2022-07-29T12:19:27.327Z,22.54
2022-07-29T12:21:59.769Z,22.74
2022-07-29T12:24:45.542Z,22.94
2022-07-29T12:27:19.511Z,23.03
2022-07-29T12:30:00.802Z,22.90
2022-07-29T12:32:34.789Z,22.91
2022-07-29T12:35:07.037Z,23.00
2022-07-29T12:37:41.111Z,22.86
2022-07-29T12:40:15.094Z,23.04
2022-07-29T12:42:43.544Z,23.14
2022-07-29T12:45:12.670Z,23.23
2022-07-29T12:47:54.604Z,23.29
2022-07-29T12:50:26.305Z,23.41
2022-07-29T12:52:54.965Z,23.54
2022-07-29T12:55:43.333Z,23.73
2022-07-29T12:58:12.377Z,23.89
2022-07-29T13:00:41.133Z,24.12
2022-07-29T13:03:09.661Z,24.34
2022-07-29T13:05:48.872Z,24.51
2022-07-29T13:08:21.988Z,24.54
2022-07-29T13:10:52.288Z,24.53
2022-07-29T13:13:20.691Z,24.63
2022-07-29T13:16:07.310Z,24.82
2022-07-29T13:18:37.660Z,24.75
2022-07-29T13:21:14.821Z,24.83
2022-07-29T13:23:44.087Z,24.62
2022-07-29T13:26:14.541Z,24.94
2022-07-29T13:28:44.286Z,24.60
2022-07-29T13:31:13.545Z,24.97
2022-07-29T13:33:42.029Z,25.40
2022-07-29T13:36:11.077Z,25.44
2022-07-29T13:38:39.713Z,25.73
2022-07-29T13:41:08.482Z,25.92
2022-07-29T13:43:38.337Z,26.10
2022-07-29T13:46:07.259Z,26.17
2022-07-29T13:48:35.832Z,26.13
2022-07-29T13:51:04.416Z,26.14
2022-07-29T13:53:34.076Z,26.12
2022-07-29T13:56:02.808Z,26.04
2022-07-29T13:58:31.349Z,25.95
2022-07-29T14:01:01.833Z,25.87
2022-07-29T14:03:30.938Z,25.80
2022-07-29T14:06:01.305Z,25.80
2022-07-29T14:08:29.865Z,25.95
2022-07-29T14:10:58.264Z,26.26
2022-07-29T14:13:26.905Z,26.18
2022-07-29T14:15:55.737Z,26.67
2022-07-29T14:18:25.941Z,26.78
2022-07-29T14:20:54.755Z,26.82
2022-07-29T14:23:23.185Z,26.90
2022-07-29T14:25:51.895Z,26.85
2022-07-29T14:28:22.030Z,26.70
2022-07-29T14:30:50.571Z,26.77
2022-07-29T14:33:19.669Z,26.65
2022-07-29T14:35:49.872Z,26.51
2022-07-29T14:38:18.485Z,26.10
2022-07-29T14:40:47.703Z,26.11
2022-07-29T14:43:19.731Z,25.61
2022-07-29T14:45:50.586Z,25.59
2022-07-29T14:48:19.711Z,25.43
2022-07-29T14:50:49.821Z,25.27
2022-07-29T14:53:18.262Z,25.14
2022-07-29T14:55:47.361Z,25.04
2022-07-29T14:58:16.652Z,24.84
2022-07-29T15:00:45.460Z,24.74
2022-07-29T15:03:24.055Z,24.65
2022-07-29T15:05:54.348Z,24.56
2022-07-29T15:08:23.717Z,24.50
2022-07-29T15:10:52.578Z,24.42
2022-07-29T15:13:21.171Z,24.36
2022-07-29T15:15:50.379Z,24.26
2022-07-29T15:18:25.453Z,24.17
2022-07-29T15:20:56.197Z,24.11
2022-07-29T15:23:24.829Z,23.96
2022-07-29T15:25:53.286Z,23.86
2022-07-29T15:28:21.741Z,23.77
2022-07-29T15:30:50.325Z,23.69
2022-07-29T15:33:18.952Z,23.60
2022-07-29T15:35:47.422Z,23.51
2022-07-29T15:38:18.476Z,23.44
2022-07-29T15:40:47.665Z,22.91
2022-07-29T15:43:16.560Z,23.16
2022-07-29T15:46:06.589Z,22.78
2022-07-29T15:48:35.401Z,22.77
2022-07-29T15:51:03.779Z,22.61
2022-07-29T15:53:35.300Z,22.44
2022-07-29T15:56:04.688Z,22.29
2022-07-29T15:58:33.097Z,22.17
2022-07-29T16:01:01.618Z,22.10
2022-07-29T16:03:31.847Z,22.04
2022-07-29T16:06:00.410Z,22.00
2022-07-29T16:08:28.937Z,21.94
2022-07-29T16:10:58.850Z,21.85
2022-07-29T16:13:27.285Z,21.51
2022-07-29T16:16:02.618Z,21.68
2022-07-29T16:18:31.573Z,21.41
2022-07-29T16:21:00.434Z,21.48
2022-07-29T16:23:29.042Z,21.56
2022-07-29T16:26:00.811Z,21.60
2022-07-29T16:28:29.850Z,21.58
2022-07-29T16:30:58.412Z,21.52
2022-07-29T16:33:27.918Z,21.46
2022-07-29T16:35:56.549Z,21.41
2022-07-29T16:38:25.054Z,21.20
2022-07-29T16:40:53.978Z,21.29
2022-07-29T16:43:23.841Z,21.24
2022-07-29T16:45:52.386Z,21.16
2022-07-29T16:48:20.912Z,21.10
2022-07-29T16:50:52.001Z,20.85
2022-07-29T16:53:20.676Z,21.02
2022-07-29T16:55:49.211Z,20.99
2022-07-29T16:58:17.625Z,20.97
2022-07-29T17:00:47.589Z,20.95
2022-07-29T17:03:16.134Z,20.96
2022-07-29T17:05:52.526Z,19.95
2022-07-29T17:08:23.292Z,20.92
2022-07-29T17:10:51.969Z,20.91
2022-07-29T17:13:21.229Z,20.87
2022-07-29T17:15:51.652Z,20.58
2022-07-29T17:18:20.312Z,20.76
2022-07-29T17:20:48.870Z,19.49
2022-07-29T17:23:17.259Z,20.58
2022-07-29T17:25:45.790Z,20.67
2022-07-29T17:28:14.570Z,20.64
2022-07-29T17:30:43.128Z,20.64
2022-07-29T17:33:13.440Z,20.62
2022-07-29T17:35:58.898Z,19.96
2022-07-29T17:38:27.337Z,20.48
2022-07-29T17:40:56.568Z,20.41
2022-07-29T17:43:25.044Z,20.38
2022-07-29T17:45:55.875Z,19.85
2022-07-29T17:48:29.525Z,20.29
2022-07-29T17:50:58.488Z,20.24
2022-07-29T17:53:26.942Z,20.19
2022-07-29T17:55:56.419Z,20.11
2022-07-29T17:58:24.906Z,20.04
2022-07-29T18:00:53.940Z,20.01
2022-07-29T18:03:22.829Z,19.99
2022-07-29T18:05:52.861Z,19.92
2022-07-29T18:08:21.330Z,19.64
2022-07-29T18:10:50.113Z,19.86
2022-07-29T18:13:18.795Z,19.76
2022-07-29T18:15:48.032Z,19.68
2022-07-29T18:18:18.493Z,19.58
2022-07-29T18:20:47.583Z,19.56
2022-07-29T18:23:17.809Z,19.46
2022-07-29T18:25:46.602Z,19.30
2022-07-29T18:28:15.041Z,18.93
2022-07-29T18:30:43.553Z,19.09
2022-07-29T18:33:23.015Z,18.99
2022-07-29T18:36:11.061Z,18.56
2022-07-29T18:38:42.044Z,18.78
2022-07-29T18:41:10.626Z,18.19
2022-07-29T18:43:39.186Z,18.70
2022-07-29T18:46:07.832Z,18.65
2022-07-29T18:48:36.602Z,18.50
2022-07-29T18:51:09.480Z,18.39
2022-07-29T18:53:38.498Z,17.97
2022-07-29T18:56:08.591Z,18.14
2022-07-29T18:58:38.420Z,18.03
2022-07-29T19:01:07.361Z,17.96
2022-07-29T19:03:36.250Z,17.90
2022-07-29T19:06:04.939Z,17.85
2022-07-29T19:08:33.527Z,17.32
2022-07-29T19:11:02.069Z,17.56
2022-07-29T19:13:32.222Z,17.69
2022-07-29T19:16:00.992Z,17.63
2022-07-29T19:18:29.820Z,17.54
2022-07-29T19:20:58.402Z,17.19
2022-07-29T19:23:26.970Z,17.46
2022-07-29T19:25:55.349Z,17.42
2022-07-29T19:28:24.104Z,17.41
2022-07-29T19:30:54.905Z,17.40
2022-07-29T19:33:23.425Z,17.37
2022-07-29T19:35:55.003Z,17.33
2022-07-29T19:38:24.275Z,17.11
2022-07-29T19:40:53.083Z,17.29
2022-07-29T19:43:50.378Z,17.21
2022-07-29T19:46:11.753Z,17.18
2022-07-29T19:48:40.493Z,17.19
2022-07-29T19:51:09.256Z,17.11
2022-07-29T19:53:37.870Z,16.53
2022-07-29T19:56:07.217Z,17.05
2022-07-29T19:58:37.512Z,17.05
2022-07-29T20:01:10.780Z,17.06
2022-07-29T20:12:23.288Z,16.50
2022-07-29T20:20:16.056Z,16.33
2022-07-29T20:22:47.875Z,16.88
2022-07-29T20:40:26.177Z,16.65
2022-07-29T20:42:54.874Z,16.72
2022-07-29T20:45:25.620Z,16.33
2022-07-29T20:47:54.668Z,16.68
2022-07-29T20:56:59.735Z,16.63
2022-07-29T20:59:31.271Z,16.75
2022-07-29T21:02:00.965Z,16.16
2022-07-29T21:04:32.778Z,16.56
2022-07-29T21:07:03.073Z,16.53
2022-07-29T21:09:34.193Z,16.71
2022-07-29T21:12:06.344Z,16.69
2022-07-29T21:14:48.970Z,16.65
2022-07-29T21:17:25.946Z,16.62
2022-07-29T21:19:59.410Z,16.57
2022-07-29T21:22:29.613Z,16.46
2022-07-29T21:25:00.328Z,16.43
2022-07-29T21:31:06.647Z,16.18
2022-07-29T21:33:35.537Z,16.22
2022-07-29T21:38:54.485Z,16.38
2022-07-29T21:41:22.889Z,16.39
2022-07-29T21:43:52.763Z,16.40
2022-07-29T21:46:24.549Z,16.38
2022-07-29T21:48:53.202Z,16.40
2022-07-29T21:51:21.733Z,16.41
2022-07-29T21:53:53.035Z,16.38
2022-07-29T21:56:23.622Z,16.34
2022-07-29T21:58:57.845Z,16.31
2022-07-29T22:01:26.878Z,16.13
2022-07-29T22:03:55.471Z,15.68
2022-07-29T22:06:24.261Z,15.93
2022-07-29T22:08:52.703Z,15.95
2022-07-29T22:11:21.604Z,16.24
2022-07-29T22:13:49.987Z,16.22
2022-07-29T22:16:20.163Z,16.21
2022-07-29T22:18:49.350Z,16.21
2022-07-29T22:21:17.850Z,16.04
2022-07-29T22:23:46.335Z,16.23
2022-07-29T22:26:14.870Z,16.11
2022-07-29T22:28:43.974Z,16.25
2022-07-29T22:31:12.591Z,16.27
2022-07-29T22:33:42.816Z,16.24
2022-07-29T22:36:11.681Z,16.23
2022-07-29T22:38:40.129Z,16.25
2022-07-29T22:41:09.093Z,16.26
2022-07-29T22:43:39.861Z,16.28
2022-07-29T22:46:10.534Z,16.29
2022-07-29T22:48:41.903Z,16.26
2022-07-29T22:51:10.503Z,16.26
2022-07-29T22:53:39.122Z,16.28
2022-07-29T22:56:07.762Z,16.30
2022-07-29T22:58:36.277Z,16.30
2022-07-29T23:01:04.921Z,16.27
2022-07-29T23:03:33.507Z,16.24
2022-07-29T23:06:03.460Z,15.74
2022-07-29T23:08:32.020Z,16.28
2022-07-29T23:11:00.927Z,15.56
2022-07-29T23:13:29.375Z,16.30
2022-07-29T23:15:58.211Z,16.31
2022-07-29T23:18:26.899Z,16.33
2022-07-29T23:20:55.565Z,16.37
2022-07-29T23:23:25.432Z,16.24
2022-07-29T23:26:00.865Z,16.40
2022-07-29T23:28:29.404Z,16.41
2022-07-29T23:30:58.057Z,16.40
2022-07-29T23:33:26.545Z,16.38
2022-07-29T23:35:55.470Z,16.37
2022-07-29T23:38:25.586Z,16.35
2022-07-29T23:40:54.095Z,16.34
2022-07-29T23:43:22.943Z,16.35
2022-07-29T23:45:51.693Z,16.38
2022-07-29T23:48:22.221Z,16.37
2022-07-29T23:50:50.879Z,16.38
2022-07-29T23:53:19.461Z,16.35
2022-07-29T23:55:49.417Z,16.36
2022-07-29T23:58:17.890Z,15.64
